Time;durP1;ratioP1;P1;durP2;ratioP2;P2;SDS_P1;SDS_P2;PMS_P1;PMS_P2;Temp;Humidity;BMP_temperature;BMP_pressure;BME280_temperature;BME280_humidity;BME280_pressure;Samples;Min_cycle;Max_cycle;Signal;HPM_P1;HPM_P2
2021/07/29 00:00:30;;;;;;;10.25;8.23;;;15.80;99.90;;;;;;5013949;28;20026;-72
2021/07/29 00:02:56;;;;;;;9.40;7.72;;;15.90;99.90;;;;;;5014363;28;20022;-72
2021/07/29 00:05:22;;;;;;;10.68;7.40;;;15.90;99.90;;;;;;5013615;28;20037;-72
2021/07/29 00:07:51;;;;;;;7.60;6.68;;;15.90;99.90;;;;;;5014070;28;20041;-72
2021/07/29 00:10:18;;;;;;;11.48;6.68;;;15.90;99.90;;;;;;5014210;28;20029;-71
2021/07/29 00:12:43;;;;;;;7.32;6.53;;;15.80;99.90;;;;;;5014443;28;20104;-73
2021/07/29 00:15:14;;;;;;;11.55;7.18;;;15.80;99.90;;;;;;5013427;28;20059;-72
2021/07/29 00:20:22;;;;;;;12.63;7.82;;;15.80;99.90;;;;;;5014110;28;20102;-72
2021/07/29 00:22:53;;;;;;;14.73;7.88;;;15.70;99.90;;;;;;5013624;28;20361;-71
2021/07/29 00:25:20;;;;;;;9.50;7.68;;;15.70;99.90;;;;;;5013324;28;20018;-71
2021/07/29 00:27:46;;;;;;;10.45;8.07;;;15.60;99.90;;;;;;5013606;28;20034;-72
2021/07/29 00:30:13;;;;;;;9.27;7.85;;;15.60;99.90;;;;;;5013736;28;20120;-72
2021/07/29 00:32:40;;;;;;;9.25;7.80;;;15.50;99.90;;;;;;5013578;28;20025;-72
2021/07/29 00:35:14;;;;;;;12.10;8.48;;;15.50;99.90;;;;;;5013295;28;20018;-72
2021/07/29 00:37:40;;;;;;;12.68;8.30;;;15.50;99.90;;;;;;5013654;28;20522;-73
2021/07/29 00:40:07;;;;;;;10.15;8.48;;;15.40;99.90;;;;;;5013041;28;20066;-72
2021/07/29 00:42:32;;;;;;;12.73;9.30;;;15.40;99.90;;;;;;4996193;28;20388;-71
2021/07/29 00:44:58;;;;;;;11.93;8.65;;;15.40;99.90;;;;;;5012699;28;20075;-73
2021/07/29 00:47:24;;;;;;;13.40;9.32;;;15.20;99.90;;;;;;5013281;28;20037;-73
2021/07/29 00:49:50;;;;;;;13.82;9.45;;;15.10;99.90;;;;;;5012601;28;20387;-73
2021/07/29 00:52:19;;;;;;;11.27;9.18;;;15.10;99.90;;;;;;5013203;28;20084;-72
2021/07/29 00:54:46;;;;;;;20.55;9.70;;;15.00;99.90;;;;;;5012463;28;20464;-73
2021/07/29 00:57:12;;;;;;;12.07;9.38;;;15.00;99.90;;;;;;5013285;28;20157;-73
2021/07/29 00:59:39;;;;;;;14.52;9.25;;;15.00;99.90;;;;;;5013070;28;20029;-72
2021/07/29 01:02:05;;;;;;;12.85;8.85;;;14.90;99.90;;;;;;5013047;28;20032;-72
2021/07/29 01:04:31;;;;;;;11.57;8.93;;;14.90;99.90;;;;;;5011784;28;20028;-73
2021/07/29 01:06:57;;;;;;;13.07;9.43;;;14.90;99.90;;;;;;5012908;28;20168;-73
2021/07/29 01:09:23;;;;;;;13.93;9.35;;;14.90;99.90;;;;;;5012982;28;20512;-73
2021/07/29 01:11:49;;;;;;;10.27;8.68;;;14.90;99.90;;;;;;5012772;28;20030;-73
2021/07/29 01:14:15;;;;;;;14.68;9.57;;;14.90;99.90;;;;;;5012486;28;20029;-73
2021/07/29 01:16:41;;;;;;;13.82;9.43;;;14.80;99.90;;;;;;5012826;28;20030;-74
2021/07/29 01:19:08;;;;;;;10.25;8.85;;;14.80;99.90;;;;;;5012805;28;20037;-73
2021/07/29 01:21:35;;;;;;;11.88;9.88;;;14.80;99.90;;;;;;5012684;28;20041;-73
2021/07/29 01:24:01;;;;;;;11.68;9.32;;;14.80;99.90;;;;;;5012594;28;20037;-73
2021/07/29 01:26:27;;;;;;;13.00;9.05;;;14.80;99.90;;;;;;5012272;28;20030;-73
2021/07/29 01:28:54;;;;;;;9.68;8.73;;;14.70;99.90;;;;;;5012513;28;20033;-73
2021/07/29 01:31:20;;;;;;;11.30;9.07;;;14.70;99.90;;;;;;5012578;28;20395;-73
2021/07/29 01:33:45;;;;;;;14.90;9.52;;;14.60;99.90;;;;;;5012611;28;20018;-72
2021/07/29 01:36:11;;;;;;;11.27;9.65;;;14.60;99.90;;;;;;5011592;28;20022;-72
2021/07/29 01:38:37;;;;;;;14.82;9.43;;;14.60;99.90;;;;;;5012566;28;20033;-73
2021/07/29 01:41:03;;;;;;;14.10;9.63;;;14.60;99.90;;;;;;5012282;28;20030;-73
2021/07/29 01:43:29;;;;;;;15.98;8.95;;;14.50;99.90;;;;;;5012445;28;20436;-72
2021/07/29 01:45:54;;;;;;;13.02;9.50;;;14.50;99.90;;;;;;5011784;28;20068;-72
2021/07/29 01:48:20;;;;;;;12.07;9.48;;;14.50;99.90;;;;;;5012466;28;20026;-72
2021/07/29 01:50:46;;;;;;;18.38;10.73;;;14.50;99.90;;;;;;5012104;28;20025;-72
2021/07/29 01:53:12;;;;;;;13.52;9.32;;;14.50;99.90;;;;;;5012248;28;20022;-72
2021/07/29 01:55:45;;;;;;;13.27;9.90;;;14.40;99.90;;;;;;5011921;28;20030;-72
2021/07/29 01:58:11;;;;;;;15.57;9.77;;;14.40;99.90;;;;;;5012665;28;20117;-72
2021/07/29 02:00:38;;;;;;;13.73;9.55;;;14.40;99.90;;;;;;4995038;28;20431;-72
2021/07/29 02:03:04;;;;;;;14.63;10.70;;;14.30;99.90;;;;;;5012583;28;20026;-71
2021/07/29 02:05:30;;;;;;;14.65;9.35;;;14.40;99.90;;;;;;5011345;28;20025;-71
2021/07/29 02:07:57;;;;;;;11.13;9.65;;;14.30;99.90;;;;;;5011743;28;20488;-72
2021/07/29 02:10:22;;;;;;;18.25;9.80;;;14.30;99.90;;;;;;5011650;28;20029;-71
2021/07/29 02:12:49;;;;;;;12.77;9.10;;;14.40;99.90;;;;;;4994517;28;20384;-72
2021/07/29 02:15:15;;;;;;;16.50;10.00;;;14.40;99.90;;;;;;5011575;28;20029;-72
2021/07/29 02:17:41;;;;;;;11.10;9.80;;;14.40;99.90;;;;;;5012317;28;20034;-72
2021/07/29 02:20:07;;;;;;;11.75;9.85;;;14.40;99.90;;;;;;5011452;28;20096;-72
2021/07/29 02:22:33;;;;;;;14.57;10.25;;;14.30;99.90;;;;;;5011959;28;20480;-72
2021/07/29 02:24:59;;;;;;;13.60;8.85;;;14.30;99.90;;;;;;5013051;28;20030;-72
2021/07/29 02:27:24;;;;;;;14.15;9.70;;;14.30;99.90;;;;;;5017967;28;20034;-71
2021/07/29 02:29:51;;;;;;;12.70;9.10;;;14.30;99.90;;;;;;5019523;28;20032;-72
2021/07/29 02:32:16;;;;;;;12.73;9.50;;;14.30;99.90;;;;;;5019763;28;20417;-72
2021/07/29 02:34:42;;;;;;;14.98;9.43;;;14.30;99.90;;;;;;5019783;28;20036;-72
2021/07/29 02:37:07;;;;;;;15.15;10.18;;;14.40;99.90;;;;;;5019318;28;20061;-72
2021/07/29 02:39:33;;;;;;;12.57;9.90;;;14.30;99.90;;;;;;5020644;28;20110;-72
2021/07/29 02:41:59;;;;;;;14.40;10.75;;;14.30;99.90;;;;;;5023223;28;20037;-72
2021/07/29 02:44:25;;;;;;;12.73;10.05;;;14.30;99.90;;;;;;5006152;28;20093;-73
2021/07/29 02:46:50;;;;;;;12.68;9.32;;;14.40;99.90;;;;;;5023927;28;20068;-72
2021/07/29 02:49:16;;;;;;;15.13;9.68;;;14.40;99.90;;;;;;5014215;28;20088;-73
2021/07/29 02:51:41;;;;;;;11.90;9.60;;;14.40;99.90;;;;;;5010586;28;20026;-73
2021/07/29 02:54:07;;;;;;;12.55;9.90;;;14.40;99.90;;;;;;5011268;28;20399;-73
2021/07/29 02:56:33;;;;;;;11.13;8.77;;;14.40;99.90;;;;;;5010095;28;20049;-72
2021/07/29 02:58:58;;;;;;;10.50;9.07;;;14.40;99.90;;;;;;5012742;28;20628;-72
2021/07/29 03:01:25;;;;;;;12.57;9.52;;;14.30;99.90;;;;;;5011789;28;20525;-72
2021/07/29 03:03:51;;;;;;;10.77;8.38;;;14.30;99.90;;;;;;5011517;28;20053;-72
2021/07/29 03:06:17;;;;;;;14.40;9.20;;;14.30;99.90;;;;;;4992993;28;20053;-72
2021/07/29 03:08:42;;;;;;;15.02;9.57;;;14.20;99.90;;;;;;5011584;28;20042;-72
2021/07/29 03:11:11;;;;;;;15.05;9.43;;;14.20;99.90;;;;;;5010459;28;20565;-72
2021/07/29 03:13:37;;;;;;;13.85;9.55;;;14.20;99.90;;;;;;5011535;28;20395;-72
2021/07/29 03:16:03;;;;;;;14.75;9.48;;;14.10;99.90;;;;;;5010859;28;20030;-71
2021/07/29 03:18:29;;;;;;;12.35;9.27;;;14.10;99.90;;;;;;5011235;28;20503;-72
2021/07/29 03:20:54;;;;;;;12.15;9.35;;;14.10;99.90;;;;;;5014827;28;20037;-72
2021/07/29 03:23:20;;;;;;;14.13;10.07;;;14.00;99.90;;;;;;4997706;28;20030;-71
2021/07/29 03:25:50;;;;;;;16.92;10.15;;;14.10;99.90;;;;;;4996360;28;20025;-72
2021/07/29 03:28:17;;;;;;;13.63;9.90;;;14.00;99.90;;;;;;5014756;28;20022;-71
2021/07/29 03:30:43;;;;;;;14.38;9.55;;;14.00;99.90;;;;;;5014376;28;20337;-73
2021/07/29 03:33:12;;;;;;;14.50;8.98;;;14.00;99.90;;;;;;5014843;28;20068;-73
2021/07/29 03:35:38;;;;;;;11.10;9.55;;;13.90;99.90;;;;;;5014351;28;20036;-72
2021/07/29 03:38:06;;;;;;;12.13;9.20;;;13.90;99.90;;;;;;5011124;28;20385;-71
2021/07/29 03:40:33;;;;;;;13.23;9.68;;;13.90;99.90;;;;;;5009370;28;20033;-72
2021/07/29 03:43:02;;;;;;;12.02;9.80;;;13.90;99.90;;;;;;5050068;23;20049;-74
2021/07/29 03:45:28;;;;;;;10.93;8.95;;;13.90;99.90;;;;;;5008753;28;20089;-74
2021/07/29 03:47:54;;;;;;;14.45;9.82;;;13.80;99.90;;;;;;5006896;28;20084;-73
2021/07/29 03:50:20;;;;;;;12.35;10.00;;;13.70;99.90;;;;;;5013465;28;20026;-74
2021/07/29 03:52:46;;;;;;;11.93;9.60;;;13.80;99.90;;;;;;5014228;28;20030;-73
2021/07/29 03:55:11;;;;;;;17.77;10.73;;;13.80;99.90;;;;;;5013460;28;20026;-73
2021/07/29 03:57:37;;;;;;;13.73;10.23;;;13.80;99.90;;;;;;5013891;28;20037;-73
2021/07/29 04:00:04;;;;;;;12.15;10.40;;;13.80;99.90;;;;;;5012281;28;20030;-73
2021/07/29 04:02:30;;;;;;;17.55;10.38;;;13.80;99.90;;;;;;4996118;28;20030;-73
2021/07/29 04:04:56;;;;;;;13.23;10.98;;;13.80;99.90;;;;;;5013390;28;20439;-73
2021/07/29 04:07:22;;;;;;;12.57;9.82;;;13.90;99.90;;;;;;4991996;28;20031;-74
2021/07/29 04:09:48;;;;;;;17.50;10.52;;;13.90;99.90;;;;;;4993969;28;20029;-73
2021/07/29 04:12:14;;;;;;;14.40;10.15;;;13.90;99.90;;;;;;4993908;28;20041;-73
2021/07/29 04:14:40;;;;;;;16.55;10.48;;;14.00;99.90;;;;;;4993260;28;20473;-73
2021/07/29 04:17:06;;;;;;;12.90;10.27;;;14.00;99.90;;;;;;4994156;28;20018;-73
2021/07/29 04:19:33;;;;;;;13.05;9.18;;;14.10;99.90;;;;;;4993725;28;20105;-74
2021/07/29 04:22:00;;;;;;;16.35;10.38;;;14.20;99.90;;;;;;4993524;28;20082;-73
2021/07/29 04:24:28;;;;;;;12.98;9.43;;;14.30;99.90;;;;;;4993409;28;20026;-73
2021/07/29 04:26:54;;;;;;;13.95;9.57;;;14.40;99.90;;;;;;4993819;28;20029;-73
2021/07/29 04:29:20;;;;;;;11.60;8.77;;;14.40;99.90;;;;;;4996382;28;20463;-73
2021/07/29 04:31:45;;;;;;;11.90;8.15;;;14.50;99.90;;;;;;5012669;28;20029;-73
2021/07/29 04:34:11;;;;;;;12.30;7.80;;;14.30;99.90;;;;;;5013204;28;20026;-73
2021/07/29 04:36:40;;;;;;;9.52;7.45;;;14.30;99.90;;;;;;5012604;28;20057;-73
2021/07/29 04:39:07;;;;;;;10.35;7.45;;;14.40;99.90;;;;;;5013097;28;20480;-73
2021/07/29 04:41:43;;;;;;;12.55;7.30;;;14.50;99.90;;;;;;5012696;28;20121;-73
2021/07/29 04:44:09;;;;;;;9.57;6.28;;;14.60;99.90;;;;;;5012940;28;20113;-73
2021/07/29 04:46:37;;;;;;;10.02;6.93;;;14.60;99.90;;;;;;5012166;28;20380;-73
2021/07/29 04:49:04;;;;;;;11.27;7.53;;;14.70;99.90;;;;;;5012601;28;20022;-74
2021/07/29 04:51:30;;;;;;;9.48;7.25;;;14.90;99.90;;;;;;4994853;28;20084;-73
2021/07/29 04:53:55;;;;;;;12.55;7.00;;;15.00;99.90;;;;;;4995709;28;20472;-73
2021/07/29 04:56:21;;;;;;;9.95;6.55;;;15.10;99.90;;;;;;5012120;28;20101;-73
2021/07/29 04:58:50;;;;;;;16.98;6.82;;;15.00;99.90;;;;;;5012235;28;20021;-73
2021/07/29 05:01:19;;;;;;;9.85;6.70;;;15.00;99.90;;;;;;5012592;28;20117;-73
2021/07/29 05:03:46;;;;;;;11.40;7.43;;;15.20;99.90;;;;;;5015322;28;20029;-73
2021/07/29 05:06:12;;;;;;;9.02;6.85;;;15.20;99.90;;;;;;5005267;28;20030;-73
2021/07/29 05:08:38;;;;;;;7.93;6.05;;;15.30;99.90;;;;;;5016343;28;20037;-73
2021/07/29 05:11:05;;;;;;;9.10;5.50;;;15.30;99.90;;;;;;5013124;28;20026;-74
2021/07/29 05:13:33;;;;;;;7.80;5.07;;;15.20;99.90;;;;;;5012818;28;20045;-71
2021/07/29 05:16:04;;;;;;;9.52;4.80;;;15.40;99.90;;;;;;5012316;28;20058;-70
2021/07/29 05:18:29;;;;;;;7.72;4.78;;;15.30;99.90;;;;;;5012670;28;20101;-70
2021/07/29 05:21:02;;;;;;;6.60;5.63;;;15.40;99.90;;;;;;5012301;28;20030;-70
2021/07/29 05:23:28;;;;;;;10.18;5.40;;;15.50;99.90;;;;;;5012313;28;20088;-70
2021/07/29 05:25:54;;;;;;;7.00;5.25;;;15.60;99.90;;;;;;5011142;28;20026;-71
2021/07/29 05:28:19;;;;;;;5.80;5.25;;;15.70;99.90;;;;;;5012314;28;20120;-74
2021/07/29 05:30:45;;;;;;;7.70;6.20;;;15.80;99.90;;;;;;5007896;28;20023;-74
2021/07/29 05:33:10;;;;;;;7.05;5.78;;;16.00;99.90;;;;;;5009916;28;20022;-73
2021/07/29 05:35:36;;;;;;;8.43;5.72;;;16.10;99.90;;;;;;4994655;28;20030;-73
2021/07/29 05:38:02;;;;;;;8.07;5.80;;;15.90;99.90;;;;;;4995666;28;20407;-73
2021/07/29 05:40:28;;;;;;;7.20;5.90;;;16.00;99.90;;;;;;4993250;28;20033;-73
2021/07/29 05:42:53;;;;;;;7.07;5.65;;;15.90;99.90;;;;;;4992795;28;20057;-72
2021/07/29 05:45:20;;;;;;;6.35;5.70;;;16.00;99.90;;;;;;4993041;28;20026;-74
2021/07/29 05:47:45;;;;;;;5.75;5.18;;;15.90;99.90;;;;;;5013424;28;20052;-74
2021/07/29 05:50:11;;;;;;;9.95;6.18;;;15.80;99.90;;;;;;4997487;28;20030;-74
2021/07/29 05:52:37;;;;;;;12.00;6.55;;;15.90;99.90;;;;;;4997122;28;20513;-74
2021/07/29 05:55:04;;;;;;;11.63;6.80;;;15.90;99.90;;;;;;5013650;28;20073;-74
2021/07/29 05:57:32;;;;;;;9.13;6.47;;;16.00;99.90;;;;;;5010614;28;20029;-73
2021/07/29 05:59:57;;;;;;;9.50;7.00;;;16.10;99.90;;;;;;5007030;28;20109;-73
2021/07/29 06:02:23;;;;;;;14.45;7.40;;;16.10;99.90;;;;;;5011009;28;20546;-73
2021/07/29 06:04:49;;;;;;;11.68;7.75;;;16.20;99.90;;;;;;5010440;28;20018;-74
2021/07/29 06:07:14;;;;;;;8.65;7.72;;;16.20;99.90;;;;;;4994031;28;20097;-75
2021/07/29 06:09:40;;;;;;;11.93;7.60;;;16.30;99.90;;;;;;4994287;28;20476;-73
2021/07/29 06:12:06;;;;;;;14.13;7.75;;;16.30;99.90;;;;;;5011697;28;20018;-73
2021/07/29 06:14:31;;;;;;;11.80;7.88;;;16.20;99.90;;;;;;5010503;28;20076;-74
2021/07/29 06:16:57;;;;;;;11.43;7.22;;;16.30;99.90;;;;;;5011597;28;20034;-73
2021/07/29 06:19:29;;;;;;;12.25;7.10;;;16.30;99.90;;;;;;4993665;28;20030;-73
2021/07/29 06:21:59;;;;;;;10.57;7.47;;;16.30;99.90;;;;;;5012445;28;20544;-73
2021/07/29 06:24:28;;;;;;;9.15;6.97;;;16.30;99.90;;;;;;4994261;28;20088;-72
2021/07/29 06:26:54;;;;;;;13.50;7.47;;;16.30;99.90;;;;;;5011970;28;20033;-72
2021/07/29 06:29:20;;;;;;;16.20;7.80;;;16.40;99.90;;;;;;5008767;28;20037;-71
2021/07/29 06:31:46;;;;;;;11.73;6.43;;;16.50;99.90;;;;;;5014232;28;20018;-72
2021/07/29 06:34:12;;;;;;;11.55;6.38;;;16.50;99.90;;;;;;5007563;28;20026;-72
2021/07/29 06:36:37;;;;;;;10.18;6.80;;;16.60;99.90;;;;;;5020143;28;20029;-72
2021/07/29 06:39:04;;;;;;;12.63;7.20;;;16.70;99.90;;;;;;5012038;28;20025;-71
2021/07/29 06:41:30;;;;;;;7.47;6.57;;;16.80;99.90;;;;;;5012234;28;20038;-74
2021/07/29 06:43:56;;;;;;;8.48;6.85;;;16.90;99.90;;;;;;5012166;28;20052;-73
2021/07/29 06:46:21;;;;;;;10.40;6.00;;;16.90;99.90;;;;;;4994132;28;20026;-73
2021/07/29 06:48:49;;;;;;;8.70;5.60;;;17.10;99.90;;;;;;4994818;28;20069;-72
2021/07/29 06:51:14;;;;;;;10.82;5.28;;;17.10;99.90;;;;;;4994194;28;20026;-72
2021/07/29 06:53:40;;;;;;;8.40;4.88;;;17.20;99.90;;;;;;5013509;28;20022;-73
2021/07/29 06:56:07;;;;;;;5.57;4.75;;;17.30;99.90;;;;;;4997900;28;20029;-73
2021/07/29 06:58:34;;;;;;;8.88;5.05;;;17.50;99.90;;;;;;5015700;28;20030;-73
2021/07/29 07:01:03;;;;;;;5.13;4.55;;;17.80;99.90;;;;;;5015434;28;20037;-70
2021/07/29 07:03:30;;;;;;;7.10;4.55;;;17.90;99.90;;;;;;4998167;28;20033;-72
2021/07/29 07:06:02;;;;;;;5.78;4.35;;;18.00;99.90;;;;;;5015146;28;20030;-72
2021/07/29 07:08:28;;;;;;;14.90;4.20;;;18.20;99.90;;;;;;5016256;28;20030;-73
2021/07/29 07:10:54;;;;;;;5.93;4.00;;;18.30;99.90;;;;;;5016274;28;20025;-73
2021/07/29 07:13:20;;;;;;;4.10;3.70;;;18.50;99.90;;;;;;5015331;28;20026;-72
2021/07/29 07:15:45;;;;;;;3.78;3.47;;;18.50;99.90;;;;;;5014511;28;20376;-72
2021/07/29 07:18:11;;;;;;;4.35;3.83;;;18.70;99.90;;;;;;5015956;28;20061;-72
2021/07/29 07:20:37;;;;;;;4.13;3.70;;;18.90;99.90;;;;;;5015258;28;20041;-72
2021/07/29 07:23:02;;;;;;;5.55;3.60;;;19.00;99.90;;;;;;5015953;28;20480;-72
2021/07/29 07:25:28;;;;;;;5.70;3.80;;;19.10;99.90;;;;;;5014451;28;20534;-72
2021/07/29 07:27:54;;;;;;;4.32;3.40;;;19.40;99.90;;;;;;5015633;28;20061;-71
2021/07/29 07:30:20;;;;;;;5.22;3.30;;;19.70;99.90;;;;;;5019872;28;20026;-73
2021/07/29 07:32:45;;;;;;;4.65;3.35;;;19.70;99.90;;;;;;5038196;28;20044;-72
2021/07/29 07:35:11;;;;;;;7.90;3.60;;;19.80;99.90;;;;;;5037781;28;20033;-71
2021/07/29 07:37:39;;;;;;;4.13;3.33;;;19.90;99.90;;;;;;5038239;28;20157;-72
2021/07/29 07:40:08;;;;;;;6.45;3.30;;;20.20;99.90;;;;;;5037203;28;20040;-72
2021/07/29 07:42:34;;;;;;;4.95;3.38;;;20.60;99.90;;;;;;5020803;28;20033;-72
2021/07/29 07:45:00;;;;;;;6.03;2.67;;;21.00;99.90;;;;;;5017514;28;20105;-72
2021/07/29 07:47:28;;;;;;;6.05;2.55;;;20.90;99.90;;;;;;5018355;28;20022;-73
2021/07/29 07:49:54;;;;;;;3.70;2.60;;;21.10;99.90;;;;;;5017585;28;20036;-71
2021/07/29 07:52:20;;;;;;;6.70;2.55;;;21.20;99.90;;;;;;5015180;28;20049;-72
2021/07/29 07:54:45;;;;;;;3.03;2.78;;;21.30;99.90;;;;;;5025080;28;20025;-73
2021/07/29 07:57:11;;;;;;;4.85;2.63;;;21.20;99.90;;;;;;5029091;28;20101;-72
2021/07/29 07:59:38;;;;;;;3.78;2.70;;;21.20;99.90;;;;;;4999243;28;20518;-72
2021/07/29 08:02:04;;;;;;;3.17;2.42;;;21.70;99.90;;;;;;4998747;28;20602;-72
2021/07/29 08:04:30;;;;;;;3.63;2.40;;;21.80;99.90;;;;;;5015339;28;20037;-72
2021/07/29 08:06:56;;;;;;;8.93;3.67;;;22.10;99.90;;;;;;5014581;28;20034;-72
2021/07/29 08:09:22;;;;;;;5.57;2.55;;;22.50;99.90;;;;;;5015107;28;20492;-73
2021/07/29 08:11:47;;;;;;;3.28;2.50;;;22.70;99.90;;;;;;5015254;28;20046;-72
2021/07/29 08:14:13;;;;;;;2.92;2.55;;;22.80;99.90;;;;;;4997398;28;20025;-72
2021/07/29 08:16:39;;;;;;;2.70;2.20;;;22.50;99.90;;;;;;4996509;28;20033;-72
2021/07/29 08:19:05;;;;;;;3.30;2.80;;;22.00;99.90;;;;;;4997446;28;20494;-72
2021/07/29 08:21:31;;;;;;;3.70;3.08;;;22.10;99.90;;;;;;4998927;28;20036;-72
2021/07/29 08:23:57;;;;;;;5.90;2.60;;;22.00;99.90;;;;;;4997345;28;20476;-72
2021/07/29 08:26:22;;;;;;;6.03;2.60;;;22.00;99.90;;;;;;5013573;28;20448;-72
2021/07/29 08:28:51;;;;;;;4.60;2.40;;;21.70;99.90;;;;;;5012910;28;20030;-72
2021/07/29 08:31:17;;;;;;;3.22;2.92;;;22.20;99.90;;;;;;5014212;28;20014;-72
2021/07/29 08:33:43;;;;;;;4.80;2.45;;;23.10;99.90;;;;;;5015095;28;20028;-73
2021/07/29 08:36:16;;;;;;;4.65;2.88;;;23.20;99.90;;;;;;5013194;28;20018;-72
2021/07/29 08:38:43;;;;;;;3.78;2.75;;;23.00;99.90;;;;;;5009809;28;20049;-72
2021/07/29 08:41:10;;;;;;;2.95;2.65;;;23.30;99.90;;;;;;4993524;28;20384;-73
2021/07/29 08:43:36;;;;;;;4.63;2.60;;;23.10;99.90;;;;;;4993325;28;20030;-72
2021/07/29 08:46:07;;;;;;;3.53;2.70;;;23.00;99.90;;;;;;4995531;28;20042;-72
2021/07/29 08:48:35;;;;;;;8.20;2.33;;;22.90;99.90;;;;;;4995933;28;20096;-73
2021/07/29 08:51:01;;;;;;;4.70;2.90;;;23.10;99.90;;;;;;4991880;28;20328;-73
2021/07/29 08:53:27;;;;;;;3.38;3.08;;;23.40;99.90;;;;;;4976574;28;20023;-72
2021/07/29 08:55:54;;;;;;;3.08;2.50;;;24.30;99.90;;;;;;4993270;28;20445;-72
2021/07/29 08:58:20;;;;;;;7.85;3.20;;;24.10;99.90;;;;;;4996262;28;20491;-73
2021/07/29 09:01:02;;;;;;;3.28;2.80;;;24.20;99.90;;;;;;5011555;28;20022;-72
2021/07/29 09:03:28;;;;;;;4.28;2.38;;;24.00;99.90;;;;;;5001718;28;20033;-72
2021/07/29 09:06:08;;;;;;;3.92;2.65;;;24.60;99.90;;;;;;5021126;28;20040;-72
2021/07/29 09:08:44;;;;;;;3.13;2.20;;;24.90;99.90;;;;;;4979519;28;20034;-71
2021/07/29 09:11:28;;;;;;;4.35;2.45;;;25.40;99.90;;;;;;4992520;28;20030;-72
2021/07/29 09:14:11;;;;;;;3.38;2.65;;;26.30;99.90;;;;;;4992834;28;20037;-72
2021/07/29 09:16:57;;;;;;;4.22;2.72;;;26.20;99.80;;;;;;4991977;28;20485;-71
2021/07/29 09:19:40;;;;;;;3.75;2.90;;;25.00;99.90;;;;;;4993339;28;20026;-71
2021/07/29 09:22:08;;;;;;;3.47;2.97;;;25.10;99.90;;;;;;4999930;28;20511;-69
2021/07/29 09:24:34;;;;;;;3.35;2.78;;;25.10;99.90;;;;;;5011880;28;20084;-69
2021/07/29 09:27:00;;;;;;;4.35;3.03;;;25.70;99.90;;;;;;5012318;28;20029;-69
2021/07/29 09:29:28;;;;;;;4.75;2.80;;;24.40;98.90;;;;;;5011022;28;20033;-69
2021/07/29 09:32:04;;;;;;;2.38;2.17;;;24.00;99.90;;;;;;5013178;28;20022;-70
2021/07/29 09:34:43;;;;;;;3.85;3.05;;;24.40;99.90;;;;;;4994733;28;20018;-70
2021/07/29 09:37:10;;;;;;;4.28;2.83;;;23.40;99.90;;;;;;5012807;28;20030;-70
2021/07/29 09:39:35;;;;;;;3.05;2.75;;;23.50;99.90;;;;;;5012202;28;20018;-70
2021/07/29 09:42:18;;;;;;;4.88;2.67;;;24.30;99.50;;;;;;4994460;28;20447;-71
2021/07/29 09:44:52;;;;;;;5.50;2.83;;;24.80;99.90;;;;;;5010870;28;20080;-71
2021/07/29 09:47:21;;;;;;;4.32;3.30;;;25.70;98.10;;;;;;5012766;28;20487;-70
2021/07/29 09:49:49;;;;;;;5.55;2.95;;;26.10;97.80;;;;;;5015393;28;20443;-70
2021/07/29 09:52:17;;;;;;;5.13;2.83;;;25.90;96.50;;;;;;5011833;28;20053;-70
2021/07/29 09:54:44;;;;;;;3.60;2.72;;;25.90;96.80;;;;;;5011692;28;20045;-70
2021/07/29 09:57:11;;;;;;;4.65;3.00;;;25.50;96.70;;;;;;5011177;28;20033;-70
2021/07/29 09:59:37;;;;;;;4.32;2.58;;;26.00;96.90;;;;;;5009378;28;20018;-72
2021/07/29 10:02:05;;;;;;;5.03;2.95;;;27.20;97.70;;;;;;4998672;28;20033;-72
2021/07/29 10:04:42;;;;;;;4.45;2.47;;;27.20;94.30;;;;;;4978158;28;20026;-71
2021/07/29 10:07:16;;;;;;;3.72;3.00;;;25.90;95.70;;;;;;4992490;28;20022;-72
2021/07/29 10:09:46;;;;;;;4.13;2.47;;;24.20;98.30;;;;;;4992005;28;20034;-71
2021/07/29 10:12:17;;;;;;;3.92;2.90;;;24.50;97.20;;;;;;4992063;28;20023;-72
2021/07/29 10:14:51;;;;;;;3.03;2.80;;;24.80;97.50;;;;;;4994623;28;20030;-71
2021/07/29 10:17:17;;;;;;;2.70;2.50;;;24.70;98.30;;;;;;5002216;28;20397;-71
2021/07/29 10:20:11;;;;;;;2.70;2.47;;;25.40;97.00;;;;;;4992892;28;20030;-71
2021/07/29 10:22:37;;;;;;;4.05;2.47;;;25.20;94.80;;;;;;5008703;28;20448;-71
2021/07/29 10:25:03;;;;;;;3.03;2.72;;;24.70;97.10;;;;;;5011641;28;20026;-71
2021/07/29 10:27:28;;;;;;;3.50;3.00;;;25.10;97.10;;;;;;5011678;28;20037;-71
2021/07/29 10:30:20;;;;;;;2.88;2.67;;;25.40;97.10;;;;;;5010546;28;20029;-71
2021/07/29 10:32:50;;;;;;;3.20;2.45;;;26.30;97.50;;;;;;5011452;28;20022;-71
2021/07/29 10:35:31;;;;;;;3.45;3.00;;;27.00;97.00;;;;;;5010965;28;20029;-71
2021/07/29 10:38:00;;;;;;;2.90;2.63;;;26.70;94.50;;;;;;5011728;23;20125;-70
2021/07/29 10:40:35;;;;;;;2.80;2.60;;;26.80;95.00;;;;;;4992065;28;20038;-69
2021/07/29 10:43:29;;;;;;;3.83;2.88;;;27.40;93.90;;;;;;4992579;28;20366;-70
2021/07/29 10:45:56;;;;;;;3.53;3.22;;;27.10;91.90;;;;;;4991429;28;20026;-70
2021/07/29 10:48:44;;;;;;;2.97;2.78;;;27.20;95.20;;;;;;4991959;28;20026;-69
2021/07/29 10:51:23;;;;;;;3.20;2.90;;;27.60;93.70;;;;;;4991771;28;20022;-70
2021/07/29 10:53:50;;;;;;;3.25;2.90;;;26.60;95.00;;;;;;4989974;28;20018;-71
2021/07/29 10:56:19;;;;;;;4.40;3.00;;;26.70;97.70;;;;;;4990926;28;20026;-72
2021/07/29 10:58:50;;;;;;;3.35;3.05;;;26.30;93.90;;;;;;4991863;28;20083;-71
2021/07/29 11:01:16;;;;;;;3.10;2.67;;;25.90;93.50;;;;;;4992155;28;20033;-70
2021/07/29 11:03:51;;;;;;;5.85;3.40;;;26.20;96.80;;;;;;4991984;28;20033;-71
2021/07/29 11:06:25;;;;;;;3.33;2.97;;;26.60;93.70;;;;;;4990962;28;20030;-70
2021/07/29 11:08:52;;;;;;;2.88;2.63;;;26.50;92.60;;;;;;4991771;28;20053;-71
2021/07/29 11:11:18;;;;;;;3.92;3.10;;;26.60;94.30;;;;;;4991825;28;20072;-71
2021/07/29 11:13:48;;;;;;;3.85;2.63;;;26.10;93.40;;;;;;4992149;28;20077;-70
2021/07/29 11:16:15;;;;;;;4.45;2.90;;;26.40;93.50;;;;;;4974050;28;20102;-71
2021/07/29 11:18:41;;;;;;;3.90;3.13;;;26.40;93.80;;;;;;4972593;28;20375;-70
2021/07/29 11:21:15;;;;;;;3.95;3.20;;;26.80;94.00;;;;;;4972585;28;20041;-69
2021/07/29 11:23:40;;;;;;;3.97;2.90;;;26.90;91.20;;;;;;4976396;28;20081;-70
2021/07/29 11:26:06;;;;;;;5.45;2.95;;;27.40;91.60;;;;;;4971743;28;20412;-68
2021/07/29 11:28:33;;;;;;;3.20;2.97;;;27.10;90.10;;;;;;4972437;28;20030;-71
2021/07/29 11:30:59;;;;;;;3.72;3.35;;;27.00;91.50;;;;;;4959999;28;20045;-70
2021/07/29 11:33:27;;;;;;;3.28;3.05;;;26.80;90.80;;;;;;4988910;28;20027;-71
2021/07/29 11:36:06;;;;;;;3.10;2.90;;;26.00;92.80;;;;;;4972665;28;20019;-69
2021/07/29 11:38:32;;;;;;;3.30;3.00;;;26.50;93.00;;;;;;4972059;28;20045;-70
2021/07/29 11:41:02;;;;;;;5.25;3.08;;;26.80;89.40;;;;;;4974798;28;20534;-68
2021/07/29 11:43:33;;;;;;;3.75;2.90;;;26.80;90.30;;;;;;4976037;28;20054;-70
2021/07/29 11:46:10;;;;;;;4.50;3.10;;;27.20;90.20;;;;;;4975337;28;20026;-70
2021/07/29 11:48:36;;;;;;;6.57;2.83;;;26.80;90.20;;;;;;4976510;28;20468;-70
2021/07/29 11:51:15;;;;;;;2.83;2.63;;;26.90;91.40;;;;;;4995123;28;20030;-69
2021/07/29 11:53:42;;;;;;;5.55;3.28;;;27.90;91.20;;;;;;4995413;28;20480;-70
2021/07/29 11:56:09;;;;;;;5.50;2.95;;;28.60;88.70;;;;;;4994605;28;20081;-68
2021/07/29 11:58:37;;;;;;;3.75;3.00;;;29.00;87.20;;;;;;4995159;28;20045;-69
2021/07/29 12:01:13;;;;;;;4.95;3.22;;;29.50;85.30;;;;;;4995142;28;20070;-68
2021/07/29 12:03:46;;;;;;;4.57;3.47;;;29.40;83.90;;;;;;4994851;28;20040;-68
2021/07/29 12:06:15;;;;;;;4.97;3.17;;;28.20;88.00;;;;;;4994498;28;20646;-68
2021/07/29 12:08:42;;;;;;;8.27;3.40;;;28.50;86.70;;;;;;4993075;28;20053;-70
2021/07/29 12:11:09;;;;;;;9.77;3.53;;;28.20;85.70;;;;;;4987665;28;20026;-69
2021/07/29 12:13:39;;;;;;;3.92;3.28;;;27.50;88.20;;;;;;4994370;28;20084;-68
2021/07/29 12:16:05;;;;;;;3.40;3.10;;;27.40;85.60;;;;;;4993805;28;20386;-70
2021/07/29 12:18:30;;;;;;;3.92;3.50;;;27.70;87.30;;;;;;4993058;28;20018;-70
2021/07/29 12:20:57;;;;;;;4.55;3.22;;;28.20;89.40;;;;;;4994679;28;20030;-70
2021/07/29 12:23:24;;;;;;;4.85;3.13;;;28.40;87.60;;;;;;4994614;28;20551;-69
2021/07/29 12:25:50;;;;;;;6.95;3.33;;;28.60;82.60;;;;;;4993425;28;20042;-72
2021/07/29 12:28:42;;;;;;;3.67;3.38;;;28.70;83.00;;;;;;4996371;28;20031;-71
2021/07/29 12:31:22;;;;;;;5.97;2.80;;;28.20;81.50;;;;;;4998513;28;20026;-70
2021/07/29 12:34:02;;;;;;;4.40;2.90;;;27.30;82.60;;;;;;5000055;28;20041;-71
2021/07/29 12:36:41;;;;;;;5.03;2.85;;;27.20;88.30;;;;;;5010026;28;20132;-71
2021/07/29 12:39:07;;;;;;;7.82;3.42;;;27.70;86.40;;;;;;4997641;28;20034;-69
2021/07/29 12:41:35;;;;;;;4.22;3.10;;;28.30;85.00;;;;;;5002522;28;20493;-71
2021/07/29 12:44:12;;;;;;;5.47;3.30;;;27.80;83.90;;;;;;4997294;28;20113;-71
2021/07/29 12:46:38;;;;;;;5.18;3.40;;;27.60;87.70;;;;;;4993590;28;20080;-71
2021/07/29 12:49:04;;;;;;;6.15;3.00;;;28.00;86.00;;;;;;4993828;28;20109;-69